Scio, Michigan
Current Conditions -  °F | °C
As of 10:53 PM on Saturday 27 Dec 2014 (Local Time) from KARB Reporting Station
Overcast Overcast  
Wind Chill: 29°   Ceiling: 2200
Heat Index: 38°   Visibility: 10mi
Dew Point: 32°   Wind: 16mph
Humidity: 79%   Direction: 290°WNW
Pressure: 29.99"   Gusts: 23mph
Location:  42.3528°N, 83.8974°W
Report Text: KARB 280353Z AUTO 29014G20KT 10SM OVC022 03/00 A2999 RMK AO2 SLP161 T00330000
Loading
Personal Weather Stations






























Interactive Weather Map New forecast layout! Learn more

10-Day Weather Forecast

Advertisements
Track Severe Weather on mobile